METAR Data
IDs: Format: Raw Decoded Include TAF

Data at: 0112 UTC 01 Mar 2021

KMQJ 010055Z AUTO 30018G25KT 7SM OVC011 11/11 A2982 RMK AO1